Monday, December 18, 2017, 7:52 AM EST
Back to Local

KBML, Berlin Municipal Airport

Location: Milan, NH, United States Lat: 44.583
Local Time: 7:52 AM EST (12:52 GMT) Lon: -71.183
Time Zone: US/Eastern Elev: 1158 ft

Show me the last for .
Show Decoded

2017-12-18 06:52 METAR KBML 181152Z AUTO 00000KT 10SM FEW110 M17/M19 A3008 RMK AO2 SLP220
                 T11721194 11172 21211 56015 =
2017-12-18 05:52 METAR KBML 181052Z AUTO 00000KT 10SM CLR M18/M20 A3008 RMK AO2 SLP220 T11831200
                 =
2017-12-18 04:52 METAR KBML 180952Z AUTO 00000KT 10SM BKN120 M18/M20 A3011 RMK AO2 SLP228
                 T11781200 =
2017-12-18 03:52 METAR KBML 180852Z AUTO 21003KT 10SM CLR M19/M21 A3013 RMK AO2 SLP232 T11891211
                 58007 =
2017-12-18 02:52 METAR KBML 180752Z AUTO 00000KT 10SM FEW120 M19/M22 A3015 RMK AO2 SLP239
                 T11941217 =
2017-12-18 01:52 METAR KBML 180652Z AUTO 00000KT 10SM CLR M20/M22 A3015 RMK AO2 SLP240 T12001217
                 =
2017-12-18 00:52 METAR KBML 180552Z AUTO 13003KT 10SM CLR M21/M23 A3015 RMK AO2 SLP241 I6000
                 T12111233 11189 21222 58016 =
2017-12-17 23:52 METAR KBML 180452Z AUTO 00000KT 10SM CLR M21/M23 A3017 RMK AO2 SLP248 T12061228
                 411001228 =
2017-12-17 22:52 METAR KBML 180352Z AUTO 00000KT 10SM CLR M21/M23 A3018 RMK AO2 SLP252 T12061228
                 =
2017-12-17 21:52 METAR KBML 180252Z AUTO 00000KT 10SM CLR M21/M23 A3020 RMK AO2 SLP261 I3000
                 T12111233 50002 =
2017-12-17 20:52 METAR KBML 180152Z AUTO 00000KT 10SM CLR M22/M23 A3020 RMK AO2 SLP264 T12171233
                 =
2017-12-17 19:52 METAR KBML 180052Z AUTO 00000KT 10SM CLR M21/M22 A3022 RMK AO2 SLP271 I1000
                 T12111222 =
2017-12-17 18:52 METAR KBML 172352Z AUTO 01003KT 10SM CLR M19/M21 A3019 RMK AO2 SLP262 T11891211
                 11100 21194 50004 =
2017-12-17 17:52 METAR KBML 172252Z AUTO 00000KT 10SM CLR M18/M19 A3020 RMK AO2 SLP261 T11781194
                 =
2017-12-17 16:52 METAR KBML 172152Z AUTO 00000KT 10SM CLR M16/M17 A3019 RMK AO2 SLP256 T11561172
                 =
2017-12-17 15:52 METAR KBML 172052Z AUTO 28004KT 10SM CLR M11/M17 A3018 RMK AO2 SLP248 T11111172
                 53004 =
2017-12-17 14:52 METAR KBML 171952Z AUTO VRB05KT 10SM CLR M10/M17 A3017 RMK AO2 SLP243 T11001167
                 =
2017-12-17 13:52 METAR KBML 171852Z AUTO VRB05KT 10SM CLR M11/M17 A3017 RMK AO2 SLP243 T11061172
                 =
2017-12-17 12:52 METAR KBML 171752Z AUTO VRB04KT 10SM CLR M10/M17 A3017 RMK AO2 SLP243 T11001167
                 11100 21228 56009 =
2017-12-17 11:52 METAR KBML 171652Z AUTO 28007G14KT 260V330 10SM CLR M11/M17 A3019 RMK AO2 SLP247
                 T11061167 =
2017-12-17 10:52 METAR KBML 171552Z AUTO 31008KT 10SM CLR M11/M17 A3018 RMK AO2 SLP247 T11111172
                 =
2017-12-17 09:52 METAR KBML 171452Z AUTO 00000KT 10SM CLR M16/M18 A3020 RMK AO2 SLP255 T11611183
                 53006 =
2017-12-17 09:03 METAR KBML 171403Z AUTO 00000KT 10SM FEW013 M19/M22 A3019 RMK AO2 T11941217 =
2017-12-17 08:52 METAR KBML 171352Z AUTO 00000KT 10SM SCT013 BKN020 M20/M22 A3018 RMK AO2 SLP252
                 T12001222 =

Support USWX by starting your Amazon purchase here.